createdAt,value
2023-03-20T00:02:04.315Z,98431.69
2023-03-20T00:04:30.901Z,98443.03
2023-03-20T00:06:57.532Z,98437.97
2023-03-20T00:09:25.733Z,98440.59
2023-03-20T00:11:54.147Z,98445.84
2023-03-20T00:14:24.770Z,98432.84
2023-03-20T00:16:52.250Z,98429.53
2023-03-20T00:19:24.564Z,98432.84
2023-03-20T00:21:52.751Z,98430.34
2023-03-20T00:24:19.730Z,98433.97
2023-03-20T00:26:48.125Z,98423.75
2023-03-20T00:29:31.013Z,98429.78
2023-03-20T00:31:59.032Z,98422.19
2023-03-20T00:34:29.605Z,98415.44
2023-03-20T00:36:58.221Z,98421.50
2023-03-20T00:39:24.966Z,98414.69
2023-03-20T00:41:54.869Z,98414.81
2023-03-20T00:44:34.063Z,98414.84
2023-03-20T00:47:03.977Z,98406.31
2023-03-20T00:49:35.397Z,98414.03
2023-03-20T00:52:03.643Z,98410.78
2023-03-20T00:54:31.058Z,98407.41
2023-03-20T00:57:13.557Z,98412.72
2023-03-20T00:59:48.479Z,98412.75
2023-03-20T01:02:16.116Z,98413.75
2023-03-20T01:04:42.933Z,98409.44
2023-03-20T01:07:14.623Z,98412.94
2023-03-20T01:09:41.791Z,98417.22
2023-03-20T01:12:12.163Z,98413.91
2023-03-20T01:14:38.774Z,98416.56
2023-03-20T01:17:05.367Z,98417.50
2023-03-20T01:19:31.895Z,98415.91
2023-03-20T01:21:58.366Z,98427.13
2023-03-20T01:24:24.995Z,98422.84
2023-03-20T01:26:52.716Z,98426.44
2023-03-20T01:29:30.547Z,98429.00
2023-03-20T01:31:57.157Z,98424.91
2023-03-20T01:34:23.662Z,98425.81
2023-03-20T01:36:55.486Z,98423.34
2023-03-20T01:39:24.507Z,98427.72
2023-03-20T01:41:52.742Z,98426.00
2023-03-20T01:44:29.480Z,98425.03
2023-03-20T01:46:56.257Z,98425.00
2023-03-20T01:49:22.698Z,98431.91
2023-03-20T01:51:51.611Z,98432.75
2023-03-20T01:54:32.588Z,98428.47
2023-03-20T01:57:11.432Z,98423.28
2023-03-20T01:59:50.056Z,98432.69
2023-03-20T02:02:22.222Z,98430.06
2023-03-20T02:04:54.198Z,98431.75
2023-03-20T02:07:23.395Z,98430.53
2023-03-20T02:09:51.259Z,98429.72
2023-03-20T02:12:19.570Z,98428.00
2023-03-20T02:14:48.253Z,98420.28
2023-03-20T02:17:15.631Z,98422.06
2023-03-20T02:20:17.835Z,98423.09
2023-03-20T02:23:05.554Z,98425.69
2023-03-20T02:26:03.883Z,98424.91
2023-03-20T02:28:52.514Z,98425.72
2023-03-20T02:31:56.678Z,98423.13
2023-03-20T02:34:50.854Z,98424.09
2023-03-20T02:37:29.635Z,98419.06
2023-03-20T02:40:08.938Z,98421.63
2023-03-20T02:42:42.606Z,98420.03
2023-03-20T02:45:37.826Z,98411.47
2023-03-20T02:48:28.114Z,98412.31
2023-03-20T02:51:16.369Z,98418.47
2023-03-20T02:53:54.173Z,98419.34
2023-03-20T02:56:51.384Z,98421.91
2023-03-20T02:59:29.615Z,98416.84
2023-03-20T03:02:18.725Z,98421.19
2023-03-20T03:04:51.921Z,98429.81
2023-03-20T03:07:22.303Z,98422.09
2023-03-20T03:09:56.953Z,98422.13
2023-03-20T03:12:29.678Z,98441.88
2023-03-20T03:15:07.708Z,98428.25
2023-03-20T03:17:37.036Z,98430.03
2023-03-20T03:20:09.611Z,98433.47
2023-03-20T03:22:36.700Z,98423.97
2023-03-20T03:25:03.503Z,98430.06
2023-03-20T03:27:37.356Z,98431.84
2023-03-20T03:30:11.838Z,98426.75
2023-03-20T03:32:50.735Z,98432.81
2023-03-20T03:35:20.670Z,98430.22
2023-03-20T03:38:00.675Z,98426.00
2023-03-20T03:40:53.449Z,98430.28
2023-03-20T03:43:27.226Z,98424.28
2023-03-20T03:46:01.094Z,98439.53
2023-03-20T03:48:36.200Z,98435.38
2023-03-20T03:51:07.835Z,98435.31
2023-03-20T03:53:38.862Z,98437.81
2023-03-20T03:56:08.843Z,98437.78
2023-03-20T03:58:44.015Z,98435.50
2023-03-20T04:01:12.554Z,98433.00
2023-03-20T04:03:42.092Z,98434.81
2023-03-20T04:06:11.746Z,98440.78
2023-03-20T04:08:41.535Z,98444.31
2023-03-20T04:11:15.929Z,98447.88
2023-03-20T04:13:42.580Z,98447.88
2023-03-20T04:16:19.576Z,98454.03
2023-03-20T04:18:47.216Z,98451.47
2023-03-20T04:21:15.900Z,98444.63
2023-03-20T04:23:42.816Z,98439.47
2023-03-20T04:26:11.531Z,98448.88
2023-03-20T04:28:38.336Z,98448.06
2023-03-20T04:31:05.082Z,98447.22
2023-03-20T04:33:31.901Z,98446.44
2023-03-20T04:35:58.528Z,98438.81
2023-03-20T04:38:25.299Z,98443.88
2023-03-20T04:40:52.346Z,98439.66
2023-03-20T04:43:18.977Z,98436.19
2023-03-20T04:45:45.838Z,98443.09
2023-03-20T04:48:12.420Z,98454.19
2023-03-20T04:50:39.274Z,98451.59
2023-03-20T04:53:08.976Z,98455.91
2023-03-20T04:55:35.863Z,98449.97
2023-03-20T04:58:02.564Z,98456.72
2023-03-20T05:00:29.278Z,98449.03
2023-03-20T05:02:55.983Z,98455.94
2023-03-20T05:05:23.687Z,98459.38
2023-03-20T05:07:51.627Z,98463.56
2023-03-20T05:10:21.823Z,98465.34
2023-03-20T05:12:48.598Z,98470.53
2023-03-20T05:15:15.260Z,98469.59
2023-03-20T05:17:41.794Z,98468.66
2023-03-20T05:20:11.696Z,98474.75
2023-03-20T05:22:38.216Z,98471.31
2023-03-20T05:25:05.122Z,98477.38
2023-03-20T05:27:31.654Z,98465.44
2023-03-20T05:29:58.188Z,98470.53
2023-03-20T05:32:24.737Z,98474.75
2023-03-20T05:34:51.218Z,98473.94
2023-03-20T05:37:17.842Z,98481.72
2023-03-20T05:39:44.351Z,98487.66
2023-03-20T05:42:10.945Z,98486.88
2023-03-20T05:44:37.523Z,98492.91
2023-03-20T05:47:04.065Z,98478.38
2023-03-20T05:49:30.860Z,98481.75
2023-03-20T05:51:57.391Z,98487.72
2023-03-20T05:54:23.924Z,98481.72
2023-03-20T05:56:50.730Z,98482.56
2023-03-20T05:59:17.306Z,98493.63
2023-03-20T06:01:43.840Z,98493.63
2023-03-20T06:04:11.773Z,98490.16
2023-03-20T06:06:39.518Z,98498.72
2023-03-20T06:09:06.289Z,98502.97
2023-03-20T06:11:34.901Z,98496.94
2023-03-20T06:14:02.910Z,98496.94
2023-03-20T06:16:30.643Z,98502.94
2023-03-20T06:18:57.166Z,98512.22
2023-03-20T06:21:23.887Z,98516.41
2023-03-20T06:23:50.420Z,98503.44
2023-03-20T06:26:17.155Z,98510.16
2023-03-20T06:28:43.706Z,98511.72
2023-03-20T06:31:10.302Z,98520.09
2023-03-20T06:33:40.424Z,98521.63
2023-03-20T06:36:09.405Z,98521.44
2023-03-20T06:38:38.458Z,98521.28
2023-03-20T06:41:05.360Z,98511.00
2023-03-20T06:43:31.872Z,98512.69
2023-03-20T06:45:58.714Z,98503.06
2023-03-20T06:48:25.198Z,98511.09
2023-03-20T06:50:52.843Z,98511.47
2023-03-20T06:53:20.022Z,98518.81
2023-03-20T06:55:51.730Z,98518.50
2023-03-20T06:58:19.377Z,98518.22
2023-03-20T07:00:46.628Z,98517.94
2023-03-20T07:03:13.500Z,98517.41
2023-03-20T07:05:40.426Z,98524.56
2023-03-20T07:08:08.017Z,98522.06
2023-03-20T07:10:35.448Z,98528.09
2023-03-20T07:13:02.041Z,98535.94
2023-03-20T07:15:30.190Z,98533.22
2023-03-20T07:17:57.351Z,98538.00
2023-03-20T07:20:24.032Z,98534.53
2023-03-20T07:22:50.664Z,98536.88
2023-03-20T07:25:17.203Z,98535.00
2023-03-20T07:27:52.829Z,98537.22
2023-03-20T07:30:19.395Z,98531.03
2023-03-20T07:32:46.103Z,98527.38
2023-03-20T07:35:13.482Z,98528.75
2023-03-20T07:37:40.615Z,98524.28
2023-03-20T07:40:10.882Z,98530.53
2023-03-20T07:42:38.571Z,98522.41
2023-03-20T07:45:05.674Z,98524.69
2023-03-20T07:47:32.312Z,98533.97
2023-03-20T07:50:01.759Z,98530.06
2023-03-20T07:52:28.272Z,98521.91
2023-03-20T07:54:54.852Z,98524.09
2023-03-20T07:57:21.526Z,98523.84
2023-03-20T07:59:48.143Z,98519.22
2023-03-20T08:02:18.521Z,98523.31
2023-03-20T08:04:48.452Z,98523.91
2023-03-20T08:07:15.095Z,98523.31
2023-03-20T08:09:41.735Z,98517.63
2023-03-20T08:12:11.062Z,98513.97
2023-03-20T08:14:40.615Z,98515.19
2023-03-20T08:17:14.865Z,98509.69
2023-03-20T08:19:45.430Z,98515.53
2023-03-20T08:22:15.079Z,98521.72
2023-03-20T08:24:41.599Z,98521.41
2023-03-20T08:27:08.193Z,98521.94
2023-03-20T08:29:34.763Z,98526.44
2023-03-20T08:32:01.344Z,98530.25
2023-03-20T08:34:27.952Z,98532.78
2023-03-20T08:36:57.605Z,98538.19
2023-03-20T08:39:24.140Z,98525.50
2023-03-20T08:41:50.721Z,98529.09
2023-03-20T08:44:17.307Z,98534.31
2023-03-20T08:46:47.177Z,98523.31
2023-03-20T08:49:13.737Z,98527.47
2023-03-20T08:51:40.512Z,98526.56
2023-03-20T08:54:07.111Z,98521.25
2023-03-20T08:56:33.710Z,98526.31
2023-03-20T08:59:03.181Z,98531.78
2023-03-20T09:01:45.962Z,98528.13
2023-03-20T09:04:14.960Z,98522.19
2023-03-20T09:06:41.825Z,98522.13
2023-03-20T09:09:08.538Z,98526.53
2023-03-20T09:11:38.326Z,98526.91
2023-03-20T09:14:04.898Z,98535.84
2023-03-20T09:16:31.612Z,98533.59
2023-03-20T09:18:59.613Z,98525.66
2023-03-20T09:21:26.220Z,98517.78
2023-03-20T09:23:52.731Z,98518.13
2023-03-20T09:26:19.324Z,98511.88
2023-03-20T09:28:46.086Z,98509.00
2023-03-20T09:31:12.690Z,98510.13
2023-03-20T09:33:39.277Z,98503.78
2023-03-20T09:36:06.775Z,98506.13
2023-03-20T09:38:33.300Z,98508.03
2023-03-20T09:41:01.688Z,98504.38
2023-03-20T09:43:52.167Z,98500.41
2023-03-20T09:46:49.690Z,98497.63
2023-03-20T09:49:40.806Z,98494.66
2023-03-20T09:52:28.932Z,98492.13
2023-03-20T09:55:01.363Z,98493.75
2023-03-20T09:57:50.119Z,98494.22
2023-03-20T10:00:25.794Z,98493.88
2023-03-20T10:02:59.728Z,98491.13
2023-03-20T10:05:29.531Z,98484.78
2023-03-20T10:08:07.631Z,98485.25
2023-03-20T10:10:46.244Z,98479.06
2023-03-20T10:13:32.976Z,98471.16
2023-03-20T10:16:29.973Z,98468.41
2023-03-20T10:19:06.096Z,98457.84
2023-03-20T10:21:44.819Z,98466.81
2023-03-20T10:24:29.296Z,98464.03
2023-03-20T10:27:01.366Z,98463.66
2023-03-20T10:29:50.139Z,98461.88
2023-03-20T10:32:29.887Z,98461.97
2023-03-20T10:35:14.171Z,98461.69
2023-03-20T10:38:00.033Z,98467.63
2023-03-20T10:40:36.881Z,98466.25
2023-03-20T10:43:14.660Z,98457.34
2023-03-20T10:46:02.951Z,98450.06
2023-03-20T10:48:35.802Z,98458.72
2023-03-20T10:51:03.972Z,98466.81
2023-03-20T10:53:41.964Z,98456.06
2023-03-20T10:56:36.288Z,98456.56
2023-03-20T10:59:47.092Z,98455.59
2023-03-20T11:02:15.120Z,98452.59
2023-03-20T11:04:41.839Z,98449.91
2023-03-20T11:07:14.319Z,98448.56
2023-03-20T11:09:40.918Z,98445.56
2023-03-20T11:12:16.564Z,98442.44
2023-03-20T11:14:43.114Z,98443.69
2023-03-20T11:17:11.274Z,98433.69
2023-03-20T11:19:40.789Z,98432.50
2023-03-20T11:22:24.860Z,98442.41
2023-03-20T11:25:01.669Z,98433.31
2023-03-20T11:27:31.735Z,98429.34
2023-03-20T11:30:00.260Z,98426.13
2023-03-20T11:32:36.222Z,98425.50
2023-03-20T11:35:27.599Z,98417.00
2023-03-20T11:38:07.023Z,98414.84
2023-03-20T11:40:34.288Z,98410.72
2023-03-20T11:43:00.852Z,98409.34
2023-03-20T11:45:43.938Z,98413.19
2023-03-20T11:48:21.709Z,98404.25
2023-03-20T11:50:58.749Z,98402.28
2023-03-20T11:53:30.999Z,98405.38
2023-03-20T11:56:11.936Z,98396.41
2023-03-20T11:59:06.634Z,98396.06
2023-03-20T12:01:44.832Z,98396.78
2023-03-20T12:04:30.030Z,98393.50
2023-03-20T12:07:03.673Z,98399.59
2023-03-20T12:09:44.109Z,98387.81
2023-03-20T12:12:14.073Z,98390.97
2023-03-20T12:15:21.947Z,98388.91
2023-03-20T12:17:51.626Z,98375.38
2023-03-20T12:20:50.401Z,98372.56
2023-03-20T12:23:26.343Z,98377.50
2023-03-20T12:26:03.201Z,98373.75
2023-03-20T12:29:01.402Z,98372.59
2023-03-20T12:31:43.527Z,98375.22
2023-03-20T12:34:17.391Z,98372.81
2023-03-20T12:36:47.133Z,98367.94
2023-03-20T12:39:19.859Z,98374.69
2023-03-20T12:41:46.412Z,98368.41
2023-03-20T12:44:31.156Z,98363.81
2023-03-20T12:47:03.864Z,98353.25
2023-03-20T12:49:33.040Z,98357.47
2023-03-20T12:52:29.695Z,98352.13
2023-03-20T12:55:29.634Z,98356.94
2023-03-20T12:58:03.007Z,98356.94
2023-03-20T13:00:57.794Z,98359.88
2023-03-20T13:03:32.996Z,98358.38
2023-03-20T13:06:08.706Z,98354.19
2023-03-20T13:09:00.372Z,98352.44
2023-03-20T13:11:50.028Z,98349.50
2023-03-20T13:14:28.399Z,98354.53
2023-03-20T13:17:00.670Z,98348.16
2023-03-20T13:20:01.608Z,98339.97
2023-03-20T13:22:52.660Z,98340.81
2023-03-20T13:25:53.728Z,98342.78
2023-03-20T13:28:31.149Z,98340.59
2023-03-20T13:31:19.116Z,98342.00
2023-03-20T13:34:00.913Z,98332.47
2023-03-20T13:36:49.893Z,98333.28
2023-03-20T13:39:25.346Z,98335.69
2023-03-20T13:41:54.709Z,98338.31
2023-03-20T13:44:24.751Z,98339.16
2023-03-20T13:46:57.304Z,98333.09
2023-03-20T13:49:26.873Z,98326.72
2023-03-20T13:52:17.147Z,98324.31
2023-03-20T13:55:02.581Z,98331.41
2023-03-20T13:57:51.447Z,98339.16
2023-03-20T14:00:28.480Z,98329.44
2023-03-20T14:03:13.978Z,98326.72
2023-03-20T14:05:43.882Z,98319.91
2023-03-20T14:08:43.456Z,98332.47
2023-03-20T14:11:36.157Z,98330.34
2023-03-20T14:14:17.065Z,98333.66
2023-03-20T14:16:43.992Z,98340.97
2023-03-20T14:19:21.710Z,98338.81
2023-03-20T14:21:52.159Z,98336.94
2023-03-20T14:24:21.052Z,98333.03
2023-03-20T14:26:59.279Z,98343.38
2023-03-20T14:29:38.600Z,98344.97
2023-03-20T14:32:14.159Z,98343.78
2023-03-20T14:34:50.735Z,98340.41
2023-03-20T14:37:27.734Z,98344.91
2023-03-20T14:40:01.150Z,98343.63
2023-03-20T14:42:49.383Z,98340.56
2023-03-20T14:45:25.639Z,98345.25
2023-03-20T14:48:09.106Z,98351.59
2023-03-20T14:50:35.944Z,98347.56
2023-03-20T14:53:17.946Z,98347.41
2023-03-20T14:55:57.137Z,98346.00
2023-03-20T14:58:47.315Z,98348.81
2023-03-20T15:01:34.227Z,98359.34
2023-03-20T15:04:04.956Z,98346.66
2023-03-20T15:06:33.394Z,98350.97
2023-03-20T15:09:06.853Z,98343.94
2023-03-20T15:11:34.887Z,98344.22
2023-03-20T15:14:04.960Z,98349.66
2023-03-20T15:16:34.957Z,98349.09
2023-03-20T15:19:04.540Z,98347.41
2023-03-20T15:21:41.249Z,98348.63
2023-03-20T15:24:08.097Z,98349.00
2023-03-20T15:26:38.501Z,98347.41
2023-03-20T15:29:14.438Z,98350.41
2023-03-20T15:31:43.442Z,98349.53
2023-03-20T15:34:18.957Z,98348.03
2023-03-20T15:36:45.715Z,98346.53
2023-03-20T15:39:19.500Z,98356.03
2023-03-20T15:41:48.175Z,98352.84
2023-03-20T15:44:14.599Z,98351.28
2023-03-20T15:46:50.494Z,98352.28
2023-03-20T15:49:18.280Z,98353.78
2023-03-20T15:51:44.874Z,98350.03
2023-03-20T15:54:15.805Z,98349.28
2023-03-20T15:56:45.822Z,98350.31
2023-03-20T15:59:18.213Z,98352.09
2023-03-20T16:01:47.565Z,98353.28
2023-03-20T16:04:17.098Z,98359.63
2023-03-20T16:06:53.707Z,98357.09
2023-03-20T16:09:20.280Z,98363.41
2023-03-20T16:11:58.435Z,98357.44
2023-03-20T16:14:31.687Z,98362.44
2023-03-20T16:17:00.837Z,98363.38
2023-03-20T16:19:29.118Z,98361.69
2023-03-20T16:22:28.008Z,98366.72
2023-03-20T16:24:58.285Z,98368.75
2023-03-20T16:27:34.748Z,98372.50
2023-03-20T16:30:07.624Z,98371.63
2023-03-20T16:32:38.262Z,98372.31
2023-03-20T16:35:14.893Z,98370.72
2023-03-20T16:37:53.309Z,98380.41
2023-03-20T16:40:28.554Z,98373.47
2023-03-20T16:42:58.593Z,98389.31
2023-03-20T16:45:29.867Z,98388.56
2023-03-20T16:48:11.463Z,98387.97
2023-03-20T16:50:55.610Z,98398.50
2023-03-20T16:53:23.640Z,98391.69
2023-03-20T16:55:51.861Z,98395.38
2023-03-20T16:58:22.011Z,98395.66
2023-03-20T17:00:57.957Z,98398.09
2023-03-20T17:03:28.222Z,98397.31
2023-03-20T17:06:11.364Z,98394.88
2023-03-20T17:08:42.108Z,98394.88
2023-03-20T17:11:29.777Z,98393.31
2023-03-20T17:13:56.462Z,98385.41
2023-03-20T17:16:24.530Z,98386.47
2023-03-20T17:19:13.532Z,98388.25
2023-03-20T17:21:40.179Z,98387.00
2023-03-20T17:24:07.197Z,98395.72
2023-03-20T17:26:33.853Z,98382.19
2023-03-20T17:29:00.530Z,98389.66
2023-03-20T17:31:27.239Z,98384.78
2023-03-20T17:33:53.862Z,98388.28
2023-03-20T17:36:30.241Z,98392.16
2023-03-20T17:38:58.428Z,98386.28
2023-03-20T17:41:26.032Z,98384.75
2023-03-20T17:43:53.252Z,98380.75
2023-03-20T17:46:26.698Z,98381.88
2023-03-20T17:48:59.383Z,98377.97
2023-03-20T17:51:26.076Z,98379.91
2023-03-20T17:53:55.392Z,98375.69
2023-03-20T17:56:22.768Z,98379.97
2023-03-20T17:58:49.644Z,98380.66
2023-03-20T18:01:16.968Z,98389.47
2023-03-20T18:03:43.550Z,98383.53
2023-03-20T18:06:20.323Z,98385.34
2023-03-20T18:08:47.010Z,98382.84
2023-03-20T18:11:13.619Z,98381.97
2023-03-20T18:13:40.810Z,98389.97
2023-03-20T18:16:14.724Z,98395.25
2023-03-20T18:18:42.196Z,98396.16
2023-03-20T18:21:11.297Z,98399.78
2023-03-20T18:23:37.849Z,98398.09
2023-03-20T18:26:04.782Z,98401.78
2023-03-20T18:28:31.434Z,98404.47
2023-03-20T18:30:58.171Z,98404.53
2023-03-20T18:33:27.751Z,98407.31
2023-03-20T18:35:54.718Z,98411.81
2023-03-20T18:38:21.382Z,98415.31
2023-03-20T18:40:48.119Z,98418.00
2023-03-20T18:43:14.703Z,98414.78
2023-03-20T18:45:41.264Z,98412.34
2023-03-20T18:48:12.651Z,98416.69
2023-03-20T18:50:42.963Z,98420.47
2023-03-20T18:53:10.602Z,98413.72
2023-03-20T18:55:38.313Z,98415.72
2023-03-20T18:58:06.334Z,98408.06
2023-03-20T19:00:40.213Z,98411.91
2023-03-20T19:03:09.146Z,98418.28
2023-03-20T19:05:38.961Z,98414.97
2023-03-20T19:08:06.722Z,98404.78
2023-03-20T19:10:44.747Z,98414.44
2023-03-20T19:13:17.056Z,98419.72
2023-03-20T19:15:44.520Z,98419.91
2023-03-20T19:18:19.443Z,98417.47
2023-03-20T19:20:48.861Z,98421.16
2023-03-20T19:23:17.312Z,98421.41
2023-03-20T19:25:46.463Z,98419.91
2023-03-20T19:28:21.752Z,98417.22
2023-03-20T19:30:50.567Z,98422.75
2023-03-20T19:33:20.179Z,98416.94
2023-03-20T19:36:05.742Z,98418.91
2023-03-20T19:38:33.989Z,98423.47
2023-03-20T19:41:01.929Z,98421.00
2023-03-20T19:43:29.168Z,98433.22
2023-03-20T19:45:58.791Z,98435.16
2023-03-20T19:51:22.559Z,98430.94
2023-03-20T19:53:50.608Z,98436.97
2023-03-20T19:56:19.294Z,98431.00
2023-03-20T19:58:46.024Z,98437.16
2023-03-20T20:01:21.438Z,98433.59
2023-03-20T20:03:53.799Z,98441.47
2023-03-20T20:06:22.308Z,98425.38
2023-03-20T20:08:49.777Z,98431.41
2023-03-20T20:11:18.593Z,98432.47
2023-03-20T20:14:07.157Z,98437.88
2023-03-20T20:16:34.208Z,98426.63
2023-03-20T20:19:00.917Z,98431.81
2023-03-20T20:24:17.259Z,98433.78
2023-03-20T20:26:53.886Z,98433.22
2023-03-20T20:29:22.604Z,98439.50
2023-03-20T20:31:49.219Z,98439.00
2023-03-20T20:37:47.522Z,98437.97
2023-03-20T20:39:49.468Z,98440.81
2023-03-20T20:42:17.349Z,98441.91
2023-03-20T20:44:44.375Z,98439.72
2023-03-20T20:47:11.394Z,98439.00
2023-03-20T20:49:38.090Z,98439.25
2023-03-20T20:52:05.276Z,98436.38
2023-03-20T20:54:32.060Z,98439.53
2023-03-20T20:56:58.595Z,98443.16
2023-03-20T20:59:25.678Z,98433.84
2023-03-20T21:01:53.630Z,98434.84
2023-03-20T21:04:20.642Z,98434.38
2023-03-20T21:09:34.151Z,98432.81
2023-03-20T21:12:01.362Z,98442.28
2023-03-20T21:14:27.863Z,98433.59
2023-03-20T21:17:00.656Z,98428.41
2023-03-20T21:19:33.606Z,98430.09
2023-03-20T21:22:00.508Z,98432.69
2023-03-20T21:24:33.117Z,98428.41
2023-03-20T21:27:00.370Z,98431.00
2023-03-20T21:29:27.320Z,98424.97
2023-03-20T21:31:53.922Z,98425.03
2023-03-20T21:34:20.735Z,98424.44
2023-03-20T21:36:49.069Z,98422.09
2023-03-20T21:39:17.750Z,98426.31
2023-03-20T21:41:47.277Z,98421.25
2023-03-20T21:44:18.093Z,98419.66
2023-03-20T21:52:59.703Z,98418.47
2023-03-20T22:04:19.036Z,98419.44
2023-03-20T22:15:23.321Z,98421.94
2023-03-20T22:17:59.602Z,98422.72
2023-03-20T22:26:55.031Z,98423.91
2023-03-20T22:37:48.200Z,98410.16
2023-03-20T22:43:09.538Z,98407.03
2023-03-20T22:45:38.144Z,98410.47
2023-03-20T22:48:12.898Z,98420.00
2023-03-20T22:50:40.345Z,98414.81
2023-03-20T22:53:07.112Z,98410.53
2023-03-20T22:55:33.720Z,98413.06
2023-03-20T22:58:07.420Z,98420.06
2023-03-20T23:00:34.762Z,98420.91
2023-03-20T23:03:15.234Z,98413.22
2023-03-20T23:05:47.259Z,98421.00
2023-03-20T23:08:13.788Z,98414.28
2023-03-20T23:10:45.811Z,98419.59
2023-03-20T23:13:13.436Z,98405.22
2023-03-20T23:15:40.185Z,98411.13
2023-03-20T23:18:07.116Z,98407.31
2023-03-20T23:20:33.641Z,98409.09
2023-03-20T23:23:00.359Z,98406.66
2023-03-20T23:25:38.186Z,98395.13
2023-03-20T23:28:07.084Z,98394.13
2023-03-20T23:30:44.263Z,98392.06
2023-03-20T23:33:13.022Z,98389.06
2023-03-20T23:35:40.794Z,98390.63
2023-03-20T23:38:07.308Z,98389.00
2023-03-20T23:40:33.858Z,98385.44
2023-03-20T23:43:00.498Z,98387.91
2023-03-20T23:45:27.215Z,98394.59
2023-03-20T23:47:53.765Z,98401.66
2023-03-20T23:50:39.774Z,98396.41
2023-03-20T23:53:19.909Z,98392.19
2023-03-20T23:55:48.249Z,98390.88
2023-03-20T23:58:15.734Z,98394.59
